Time;durP1;ratioP1;P1;durP2;ratioP2;P2;SDS_P1;SDS_P2;PMS_P1;PMS_P2;Temp;Humidity;BMP_temperature;BMP_pressure;BME280_temperature;BME280_humidity;BME280_pressure;Samples;Min_cycle;Max_cycle;Signal;HPM_P1;HPM_P2
2022/10/29 00:00:19;;;;;;;12.77;8.63;;;;;;;11.98;58.34;95781.34;4180166;28;20076;-58
2022/10/29 00:02:21;;;;;;;16.67;10.02;;;;;;;11.90;58.66;95778.63;4181478;28;20139;-57
2022/10/29 00:04:22;;;;;;;14.07;9.30;;;;;;;11.91;58.93;95782.91;4181352;28;20048;-56
2022/10/29 00:06:24;;;;;;;14.38;9.10;;;;;;;11.91;58.82;95775.03;4179322;28;20049;-55
2022/10/29 00:08:27;;;;;;;15.40;9.65;;;;;;;11.98;58.67;95776.97;4180955;28;20627;-57
2022/10/29 00:10:29;;;;;;;14.45;8.80;;;;;;;11.95;58.74;95771.97;4173133;28;20421;-58
2022/10/29 00:12:32;;;;;;;14.05;9.13;;;;;;;11.98;58.55;95771.69;4181144;28;20558;-60
2022/10/29 00:14:34;;;;;;;13.77;8.98;;;;;;;12.01;58.46;95771.41;4168952;28;20557;-63
2022/10/29 00:16:38;;;;;;;14.60;8.73;;;;;;;12.01;58.42;95768.78;4177514;28;20132;-64
2022/10/29 00:18:40;;;;;;;12.98;8.50;;;;;;;12.00;58.59;95766.28;4181265;28;20084;-63
2022/10/29 00:20:41;;;;;;;17.70;8.82;;;;;;;12.02;58.59;95765.19;4180336;28;20084;-62
2022/10/29 00:22:43;;;;;;;15.10;9.68;;;;;;;11.98;58.78;95765.59;4177136;28;20057;-65
2022/10/29 00:24:45;;;;;;;11.80;8.77;;;;;;;11.95;58.93;95765.91;4172787;28;20085;-64
2022/10/29 00:26:46;;;;;;;14.70;8.82;;;;;;;11.94;58.74;95759.81;4176142;28;20056;-62
2022/10/29 00:28:51;;;;;;;14.60;8.27;;;;;;;11.90;58.72;95762.88;4170316;28;20041;-64
2022/10/29 00:30:53;;;;;;;15.13;8.95;;;;;;;11.81;58.80;95757.47;4178086;28;20087;-63
2022/10/29 00:32:55;;;;;;;11.82;8.02;;;;;;;11.75;59.05;95760.66;4180878;28;20133;-63
2022/10/29 00:34:57;;;;;;;14.88;8.20;;;;;;;11.63;59.35;95761.75;4180808;28;20071;-66
2022/10/29 00:36:58;;;;;;;14.38;7.70;;;;;;;11.63;59.35;95756.50;4177114;28;20120;-63
2022/10/29 00:39:00;;;;;;;15.48;7.93;;;;;;;11.64;59.36;95753.75;4170049;28;20152;-63
2022/10/29 00:41:03;;;;;;;13.45;9.05;;;;;;;11.59;59.56;95749.88;4180402;28;20131;-62
2022/10/29 00:43:15;;;;;;;11.80;7.88;;;;;;;11.64;59.47;95755.56;4180473;28;20052;-63
2022/10/29 00:45:19;;;;;;;11.95;7.47;;;;;;;11.46;59.29;95751.00;4173296;28;20043;-64
2022/10/29 00:47:28;;;;;;;;;;;;;;;11.27;59.36;95751.84;4170631;28;20083;-64
2022/10/29 00:49:31;;;;;;;9.80;6.75;;;;;;;11.00;60.38;95754.28;4172494;28;20316;-64
2022/10/29 00:51:33;;;;;;;16.55;7.50;;;;;;;10.79;61.15;95754.38;4178870;28;20053;-63
2022/10/29 00:53:37;;;;;;;15.38;7.47;;;;;;;10.77;61.99;95753.69;4178901;28;20132;-62
2022/10/29 00:55:39;;;;;;;10.15;7.82;;;;;;;10.85;61.61;95756.47;4169319;28;20136;-64
2022/10/29 00:57:47;;;;;;;10.15;6.88;;;;;;;10.98;61.04;95757.03;4177648;28;20049;-62
2022/10/29 00:59:49;;;;;;;10.98;6.32;;;;;;;11.13;60.44;95751.41;4170053;28;20199;-63
2022/10/29 01:01:51;;;;;;;10.98;6.82;;;;;;;11.25;60.09;95747.69;4178979;28;20091;-62
2022/10/29 01:03:54;;;;;;;10.55;7.22;;;;;;;11.32;59.70;95747.97;4166911;28;20108;-62
2022/10/29 01:05:56;;;;;;;10.15;7.15;;;;;;;11.40;59.66;95751.56;4179621;28;20159;-63
2022/10/29 01:07:57;;;;;;;9.25;6.63;;;;;;;11.40;59.53;95746.31;4194344;28;20135;-66
2022/10/29 01:09:59;;;;;;;10.98;7.13;;;;;;;11.39;59.35;95743.81;4180478;28;20045;-63
2022/10/29 01:12:12;;;;;;;14.23;7.68;;;;;;;11.42;59.45;95743.53;4166511;28;20067;-64
2022/10/29 01:14:29;;;;;;;11.10;7.85;;;;;;;11.42;59.61;95739.13;4180456;28;20048;-64
2022/10/29 01:16:50;;;;;;;14.93;7.30;;;;;;;11.42;59.56;95727.78;4190258;28;20513;-63
2022/10/29 01:18:55;;;;;;;11.88;8.00;;;;;;;11.40;59.89;95727.94;4169086;28;20136;-63
2022/10/29 01:21:16;;;;;;;11.80;7.93;;;;;;;11.42;59.80;95723.38;4193556;28;20060;-62
2022/10/29 01:23:39;;;;;;;13.70;7.97;;;;;;;11.43;59.53;95730.28;4178208;28;20124;-63
2022/10/29 01:25:46;;;;;;;13.65;7.97;;;;;;;11.30;59.95;95724.50;4178917;28;20140;-64
2022/10/29 01:28:00;;;;;;;11.40;7.55;;;;;;;11.23;60.38;95718.97;4179121;28;20056;-63
2022/10/29 01:30:15;;;;;;;11.52;7.57;;;;;;;11.17;60.49;95716.91;4162360;28;20077;-64
2022/10/29 01:32:28;;;;;;;12.43;8.45;;;;;;;11.19;60.54;95717.59;4157648;28;20064;-64
2022/10/29 01:34:35;;;;;;;12.30;8.15;;;;;;;11.07;60.55;95722.13;4186971;28;20123;-64
2022/10/29 01:36:45;;;;;;;11.77;7.70;;;;;;;10.53;61.17;95722.59;4170834;28;20085;-64
2022/10/29 01:39:01;;;;;;;15.20;8.05;;;;;;;10.11;62.45;95726.13;4175607;28;20045;-63
2022/10/29 01:41:27;;;;;;;12.40;7.53;;;;;;;9.94;62.55;95724.13;4179591;28;20048;-64
2022/10/29 01:44:17;;;;;;;9.75;7.82;;;;;;;9.63;64.44;95731.91;4162249;28;20069;-63
2022/10/29 01:46:57;;;;;;;11.05;6.70;;;;;;;9.55;64.33;95729.09;4152527;28;20136;-64
2022/10/29 01:49:02;;;;;;;10.55;6.50;;;;;;;9.71;63.93;95721.63;4144225;28;20073;-63
2022/10/29 01:51:08;;;;;;;14.15;6.60;;;;;;;9.63;64.07;95726.69;4170644;28;20083;-63
2022/10/29 01:53:10;;;;;;;10.02;5.97;;;;;;;9.40;64.78;95721.59;4178177;28;20619;-63
2022/10/29 01:55:18;;;;;;;9.48;6.40;;;;;;;9.60;64.71;95711.25;4165243;28;20127;-63
2022/10/29 01:57:34;;;;;;;13.00;6.28;;;;;;;9.67;63.76;95707.16;4179727;28;20047;-62
2022/10/29 01:59:36;;;;;;;9.38;7.07;;;;;;;9.84;63.50;95713.59;4179339;28;20055;-62
2022/10/29 02:02:06;;;;;;;10.68;6.50;;;;;;;9.96;63.02;95711.69;4178027;28;20132;-62
2022/10/29 02:04:48;;;;;;;9.27;5.40;;;;;;;9.94;62.76;95718.88;4193220;28;20072;-63
2022/10/29 02:07:10;;;;;;;8.00;5.30;;;;;;;9.91;62.01;95714.72;4173948;28;20052;-62
2022/10/29 02:09:35;;;;;;;10.25;5.93;;;;;;;10.01;62.69;95709.53;4150718;28;20076;-63
2022/10/29 02:11:45;;;;;;;;;;;;;;;10.15;61.73;95706.59;4161588;28;20624;-63
2022/10/29 02:13:59;;;;;;;7.72;6.13;;;;;;;10.29;61.53;95712.41;4174695;28;20040;-63
2022/10/29 02:16:04;;;;;;;8.70;6.00;;;;;;;10.41;61.18;95706.97;4174063;28;20076;-63
2022/10/29 02:18:06;;;;;;;8.20;5.93;;;;;;;10.52;61.13;95703.41;4191562;28;20235;-61
2022/10/29 02:20:10;;;;;;;9.35;6.25;;;;;;;10.60;60.41;95700.97;4177083;28;20687;-62
2022/10/29 02:22:12;;;;;;;;;;;;;;;10.70;60.33;95700.16;4174452;28;20111;-63
2022/10/29 02:24:13;;;;;;;11.65;6.07;;;;;;;10.74;60.13;95696.31;4168887;28;19932;-63
2022/10/29 02:26:15;;;;;;;11.10;6.40;;;;;;;10.66;60.55;95700.41;4175452;28;20094;-63
2022/10/29 02:28:17;;;;;;;15.43;7.10;;;;;;;10.34;60.74;95707.63;4179150;28;20060;-64
2022/10/29 02:30:24;;;;;;;10.40;7.20;;;;;;;10.19;61.88;95707.94;4173927;28;20127;-63
2022/10/29 02:32:25;;;;;;;13.68;7.40;;;;;;;10.01;61.88;95706.91;4171025;28;20130;-63
2022/10/29 02:34:27;;;;;;;15.35;8.23;;;;;;;9.92;62.66;95705.91;4174186;28;20095;-62
2022/10/29 02:36:29;;;;;;;14.30;7.72;;;;;;;9.89;62.72;95700.09;4178366;28;20053;-62
2022/10/29 02:38:30;;;;;;;12.70;7.70;;;;;;;9.92;62.89;95699.88;4174261;28;20140;-63
2022/10/29 02:40:32;;;;;;;12.52;7.53;;;;;;;9.94;62.08;95697.94;4168334;28;20160;-61
2022/10/29 02:42:33;;;;;;;13.80;8.02;;;;;;;9.64;63.15;95700.38;4176083;28;20059;-58
2022/10/29 02:44:35;;;;;;;13.32;8.25;;;;;;;9.67;63.81;95698.47;4178054;28;20095;-55
2022/10/29 02:46:38;;;;;;;13.52;8.50;;;;;;;9.79;63.26;95690.44;4164382;28;20084;-57
2022/10/29 02:48:40;;;;;;;16.40;8.95;;;;;;;9.91;62.85;95699.00;4164133;28;20410;-58
2022/10/29 02:50:42;;;;;;;16.10;8.98;;;;;;;9.94;62.51;95703.19;4176403;28;20088;-58
2022/10/29 02:52:44;;;;;;;15.48;9.13;;;;;;;10.03;62.51;95703.22;4178999;28;20495;-57
2022/10/29 02:54:45;;;;;;;17.70;10.88;;;;;;;10.11;62.49;95697.34;4179008;28;20080;-57
2022/10/29 02:56:47;;;;;;;14.95;10.98;;;;;;;10.18;62.46;95698.44;4164355;28;20531;-55
2022/10/29 02:58:48;;;;;;;12.57;9.80;;;;;;;10.12;62.64;95698.97;4172386;28;20141;-57
2022/10/29 03:00:51;;;;;;;15.45;10.23;;;;;;;10.14;62.47;95691.81;4171104;28;20470;-58
2022/10/29 03:02:52;;;;;;;19.27;10.50;;;;;;;10.16;61.89;95689.06;4178213;28;20077;-58
2022/10/29 03:04:54;;;;;;;13.68;11.18;;;;;;;9.94;62.47;95692.72;4166103;28;20132;-56
2022/10/29 03:06:56;;;;;;;14.65;10.48;;;;;;;9.49;63.46;95700.84;4171397;28;20085;-58
2022/10/29 03:08:58;;;;;;;14.13;10.38;;;;;;;8.95;65.44;95713.94;4173123;28;20053;-57
2022/10/29 03:11:00;;;;;;;13.15;10.20;;;;;;;8.81;66.61;95699.34;4176936;28;20056;-56
2022/10/29 03:13:01;;;;;;;14.27;10.60;;;;;;;9.00;66.05;95698.69;4166668;28;20485;-57
2022/10/29 03:15:03;;;;;;;13.95;10.07;;;;;;;9.19;65.34;95700.63;4178544;28;20055;-56
2022/10/29 03:17:05;;;;;;;17.65;10.18;;;;;;;9.22;65.16;95702.97;4166279;28;20080;-58
2022/10/29 03:19:07;;;;;;;20.10;9.77;;;;;;;9.18;65.30;95704.22;4175233;28;20080;-59
2022/10/29 03:21:08;;;;;;;16.38;9.65;;;;;;;9.32;64.88;95695.22;4166626;28;20045;-56
2022/10/29 03:23:10;;;;;;;17.08;10.00;;;;;;;9.40;64.77;95694.59;4178589;28;20136;-57
2022/10/29 03:25:12;;;;;;;13.63;8.45;;;;;;;9.03;64.59;95687.16;4182221;28;20048;-62
2022/10/29 03:27:13;;;;;;;12.75;8.80;;;;;;;9.13;65.19;95692.47;4181524;28;20173;-56
2022/10/29 03:29:16;;;;;;;16.80;9.18;;;;;;;9.25;65.30;95686.25;4176565;28;20045;-59
2022/10/29 03:31:18;;;;;;;12.00;9.13;;;;;;;9.32;64.75;95691.78;4176000;28;20126;-57
2022/10/29 03:33:20;;;;;;;12.48;9.07;;;;;;;9.37;64.55;95687.81;4175971;28;20048;-56
2022/10/29 03:35:21;;;;;;;12.85;8.50;;;;;;;9.29;64.40;95692.03;4185822;28;20127;-56
2022/10/29 03:37:23;;;;;;;18.88;9.07;;;;;;;9.20;64.76;95688.38;4170178;28;20495;-59
2022/10/29 03:39:25;;;;;;;15.98;9.20;;;;;;;9.17;65.08;95684.25;4172569;28;20060;-58
2022/10/29 03:41:26;;;;;;;12.52;8.75;;;;;;;9.23;64.93;95675.91;4180460;28;20080;-58
2022/10/29 03:43:28;;;;;;;14.13;9.13;;;;;;;9.33;65.06;95680.34;4181581;28;20056;-58
2022/10/29 03:45:30;;;;;;;13.02;8.18;;;;;;;9.41;63.98;95681.38;4175687;28;20052;-56
2022/10/29 03:47:32;;;;;;;16.35;9.05;;;;;;;9.50;64.63;95674.56;4173988;28;20083;-58
2022/10/29 03:49:34;;;;;;;11.82;7.97;;;;;;;9.55;63.74;95677.63;4175467;28;20141;-60
2022/10/29 03:51:36;;;;;;;14.00;7.85;;;;;;;9.59;63.48;95672.94;4177896;28;20084;-55
2022/10/29 03:53:37;;;;;;;12.00;7.80;;;;;;;9.56;63.62;95679.28;4168683;28;20120;-58
2022/10/29 03:55:39;;;;;;;14.90;8.75;;;;;;;9.19;64.19;95679.72;4181562;28;20049;-56
2022/10/29 03:57:40;;;;;;;15.93;8.73;;;;;;;8.77;65.54;95687.47;4181365;28;20049;-53
2022/10/29 03:59:42;;;;;;;14.88;9.27;;;;;;;8.76;66.10;95674.56;4167549;28;20087;-55
2022/10/29 04:01:48;;;;;;;15.15;9.43;;;;;;;8.71;65.93;95682.78;4168735;28;20057;-56
2022/10/29 04:03:50;;;;;;;15.88;9.02;;;;;;;8.60;66.39;95693.22;4181878;28;20063;-59
2022/10/29 04:05:52;;;;;;;13.38;8.60;;;;;;;8.55;67.02;95688.38;4180993;28;20461;-59
2022/10/29 04:07:53;;;;;;;17.35;8.82;;;;;;;8.73;66.36;95691.31;4180371;28;20067;-58
2022/10/29 04:09:55;;;;;;;15.20;8.55;;;;;;;8.65;66.53;95688.47;4180829;28;20386;-57
2022/10/29 04:11:57;;;;;;;17.48;8.90;;;;;;;8.74;66.08;95684.31;4172368;28;20482;-59
2022/10/29 04:13:58;;;;;;;12.20;8.45;;;;;;;8.89;65.44;95685.66;4164185;28;20592;-58
2022/10/29 04:16:00;;;;;;;14.18;8.98;;;;;;;9.02;65.42;95686.31;4179210;28;20146;-60
2022/10/29 04:18:02;;;;;;;15.43;8.65;;;;;;;9.18;65.09;95685.06;4170998;28;20049;-57
2022/10/29 04:20:04;;;;;;;11.43;8.13;;;;;;;9.31;64.30;95685.72;4181412;28;20088;-59
2022/10/29 04:22:21;;;;;;;12.10;7.47;;;;;;;9.41;64.25;95691.03;4179502;28;20061;-57
2022/10/29 04:24:43;;;;;;;11.60;8.27;;;;;;;9.48;63.94;95696.56;4180309;28;20071;-58
2022/10/29 04:27:04;;;;;;;14.85;7.38;;;;;;;9.52;64.29;95690.13;4166114;28;20045;-59
2022/10/29 04:29:26;;;;;;;15.48;8.02;;;;;;;9.57;63.36;95690.56;4181283;28;20135;-60
2022/10/29 04:31:28;;;;;;;12.50;7.97;;;;;;;9.63;63.24;95690.88;4166808;28;20119;-57
2022/10/29 04:33:29;;;;;;;12.48;7.93;;;;;;;9.68;63.52;95698.34;4181018;28;20065;-61
2022/10/29 04:35:31;;;;;;;14.68;7.70;;;;;;;9.74;62.89;95694.38;4179237;28;20080;-58
2022/10/29 04:37:32;;;;;;;13.55;7.90;;;;;;;9.74;63.00;95692.59;4180394;28;20486;-59
2022/10/29 04:39:34;;;;;;;12.00;7.60;;;;;;;9.78;62.57;95698.41;4179744;28;20053;-59
2022/10/29 04:41:36;;;;;;;13.40;8.50;;;;;;;9.82;62.95;95695.38;4168415;28;20057;-57
2022/10/29 04:43:37;;;;;;;13.55;8.27;;;;;;;9.87;62.37;95699.41;4181027;28;20048;-56
2022/10/29 04:45:39;;;;;;;16.85;7.93;;;;;;;9.87;62.09;95697.59;4171271;28;20057;-58
2022/10/29 04:47:41;;;;;;;12.02;7.70;;;;;;;9.89;62.42;95698.31;4172045;28;20051;-59
2022/10/29 04:49:42;;;;;;;12.63;8.35;;;;;;;9.92;62.34;95705.09;4166861;28;20061;-58
2022/10/29 04:51:44;;;;;;;15.82;7.85;;;;;;;9.91;62.22;95701.63;4178105;28;20132;-59
2022/10/29 04:53:46;;;;;;;16.77;8.98;;;;;;;9.83;62.75;95702.28;4180799;28;20159;-61
2022/10/29 04:55:47;;;;;;;14.52;8.73;;;;;;;9.71;63.16;95705.94;4180574;28;20081;-58
2022/10/29 04:57:49;;;;;;;15.88;8.60;;;;;;;9.70;63.01;95706.91;4180866;28;20052;-57
2022/10/29 04:59:51;;;;;;;14.55;7.88;;;;;;;9.74;63.15;95697.00;4180061;28;20120;-57
2022/10/29 05:01:53;;;;;;;16.23;8.57;;;;;;;9.77;62.88;95699.38;4179401;28;20505;-57
2022/10/29 05:03:54;;;;;;;13.73;8.40;;;;;;;9.82;62.73;95699.81;4180666;28;20680;-59
2022/10/29 05:06:05;;;;;;;17.17;9.15;;;;;;;9.94;62.59;95693.53;4180080;28;20057;-58
2022/10/29 05:08:09;;;;;;;16.58;9.02;;;;;;;10.04;61.72;95693.56;4180543;28;20522;-58
2022/10/29 05:10:10;;;;;;;15.48;9.93;;;;;;;10.08;61.87;95694.97;4180244;28;20533;-58
2022/10/29 05:12:12;;;;;;;14.02;9.13;;;;;;;10.12;61.86;95696.34;4180631;28;20410;-57
2022/10/29 05:14:14;;;;;;;15.75;8.48;;;;;;;10.27;61.77;95694.22;4180238;28;20117;-60
2022/10/29 05:16:15;;;;;;;16.52;9.50;;;;;;;10.34;61.20;95699.78;4177627;28;20124;-58
2022/10/29 05:18:17;;;;;;;15.52;9.93;;;;;;;10.28;61.02;95697.66;4171848;28;20122;-60
2022/10/29 05:20:18;;;;;;;16.77;9.73;;;;;;;10.28;61.10;95703.72;4179906;28;20478;-60
2022/10/29 05:22:20;;;;;;;14.55;8.80;;;;;;;10.27;61.91;95699.44;4180294;28;20063;-56
2022/10/29 05:24:22;;;;;;;18.38;10.55;;;;;;;10.32;61.92;95697.28;4180102;28;20409;-58
2022/10/29 05:26:23;;;;;;;18.42;9.35;;;;;;;10.30;61.74;95693.13;4180079;28;20151;-61
2022/10/29 05:28:25;;;;;;;15.45;9.18;;;;;;;10.29;61.36;95692.31;4180336;28;20053;-59
2022/10/29 05:30:27;;;;;;;15.80;9.85;;;;;;;10.29;61.42;95700.19;4174208;28;20052;-58
2022/10/29 05:32:28;;;;;;;20.70;10.68;;;;;;;10.23;61.72;95696.25;4163772;28;20049;-57
2022/10/29 05:34:33;;;;;;;19.48;10.27;;;;;;;10.25;61.47;95703.97;4175654;28;20044;-59
2022/10/29 05:36:35;;;;;;;19.80;10.38;;;;;;;10.29;62.06;95713.28;4166456;28;20164;-60
2022/10/29 05:38:36;;;;;;;15.77;9.43;;;;;;;10.36;61.71;95710.94;4180002;28;20056;-61
2022/10/29 05:40:38;;;;;;;21.05;10.13;;;;;;;10.43;61.84;95709.44;4180047;28;20051;-60
2022/10/29 05:42:40;;;;;;;20.80;11.00;;;;;;;10.45;62.04;95712.75;4178360;28;20140;-59
2022/10/29 05:44:47;;;;;;;19.55;10.02;;;;;;;10.43;62.12;95712.06;4167253;28;20440;-57
2022/10/29 05:46:49;;;;;;;18.25;10.27;;;;;;;10.55;62.17;95712.81;4170791;28;20055;-59
2022/10/29 05:48:51;;;;;;;15.80;9.88;;;;;;;10.60;61.16;95718.47;4175380;28;20045;-60
2022/10/29 05:50:53;;;;;;;17.83;9.95;;;;;;;10.65;61.51;95721.53;4167828;28;20131;-59
2022/10/29 05:53:02;;;;;;;19.70;10.75;;;;;;;10.71;61.10;95717.53;4176741;28;20513;-58
2022/10/29 05:55:05;;;;;;;19.30;9.70;;;;;;;10.80;60.76;95724.59;4171259;28;20046;-59
2022/10/29 05:57:07;;;;;;;22.88;9.80;;;;;;;10.78;60.43;95721.28;4173129;28;20045;-57
2022/10/29 05:59:09;;;;;;;21.85;10.13;;;;;;;10.84;60.72;95716.31;4171760;28;20107;-59
2022/10/29 06:01:10;;;;;;;18.10;9.85;;;;;;;10.90;60.29;95714.09;4167633;28;20782;-58
2022/10/29 06:03:21;;;;;;;20.10;10.30;;;;;;;10.97;60.45;95723.94;4178163;28;20061;-60
2022/10/29 06:05:23;;;;;;;21.05;10.35;;;;;;;11.00;60.37;95718.41;4170821;28;20246;-59
2022/10/29 06:07:25;;;;;;;21.67;10.48;;;;;;;11.03;59.84;95719.91;4169770;28;20098;-62
2022/10/29 06:09:26;;;;;;;24.75;10.45;;;;;;;11.07;59.83;95729.16;4163591;28;20056;-59
2022/10/29 06:11:28;;;;;;;16.90;9.70;;;;;;;10.98;59.59;95728.19;4179362;28;20643;-58
2022/10/29 06:13:30;;;;;;;19.98;9.98;;;;;;;11.01;59.73;95727.94;4172073;28;20805;-58
2022/10/29 06:15:31;;;;;;;19.90;11.02;;;;;;;11.04;59.65;95734.69;4168633;28;20492;-59
2022/10/29 06:17:33;;;;;;;21.13;10.70;;;;;;;11.08;59.92;95730.84;4165500;28;20053;-58
2022/10/29 06:19:35;;;;;;;19.85;10.80;;;;;;;11.12;59.73;95732.22;4178676;28;20056;-58
2022/10/29 06:21:39;;;;;;;19.67;11.07;;;;;;;11.18;59.50;95725.59;4169654;28;20148;-60
2022/10/29 06:23:41;;;;;;;18.70;10.07;;;;;;;11.28;58.98;95731.66;4174725;28;20049;-58
2022/10/29 06:25:43;;;;;;;19.52;11.82;;;;;;;11.21;58.93;95735.81;4177824;28;20073;-63
2022/10/29 06:27:44;;;;;;;17.65;11.27;;;;;;;11.16;59.52;95738.00;4170006;28;20049;-58
2022/10/29 06:29:46;;;;;;;21.20;11.23;;;;;;;11.24;59.62;95733.72;4177113;28;20077;-61
2022/10/29 06:31:47;;;;;;;16.10;10.02;;;;;;;11.34;59.19;95730.31;4164051;28;20053;-62
2022/10/29 06:33:49;;;;;;;20.80;10.43;;;;;;;11.41;59.35;95734.84;4179546;28;20076;-60
2022/10/29 06:35:51;;;;;;;18.38;10.68;;;;;;;11.54;59.10;95720.59;4178683;28;20057;-59
2022/10/29 06:37:52;;;;;;;24.40;10.55;;;;;;;11.55;58.47;95728.34;4166236;28;20045;-59
2022/10/29 06:39:55;;;;;;;19.42;10.95;;;;;;;11.60;57.89;95725.31;4177864;28;20084;-60
2022/10/29 06:41:57;;;;;;;16.90;11.07;;;;;;;11.65;58.02;95723.06;4178826;28;20091;-60
2022/10/29 06:43:58;;;;;;;17.25;11.45;;;;;;;11.74;57.51;95722.22;4177492;28;20072;-59
2022/10/29 06:46:00;;;;;;;17.33;10.73;;;;;;;11.76;57.61;95727.34;4168654;28;20049;-59
2022/10/29 06:48:04;;;;;;;19.83;10.95;;;;;;;11.73;58.19;95728.47;4173133;28;20087;-61
2022/10/29 06:50:06;;;;;;;22.63;11.95;;;;;;;11.54;58.61;95721.44;4165298;28;20156;-61
2022/10/29 06:52:07;;;;;;;21.13;10.77;;;;;;;11.53;59.12;95734.69;4170934;28;20132;-61
2022/10/29 06:54:09;;;;;;;13.60;10.55;;;;;;;11.70;58.82;95726.09;4179258;28;20489;-59
2022/10/29 06:56:11;;;;;;;16.77;11.13;;;;;;;11.74;57.82;95729.28;4178732;28;20075;-58
2022/10/29 06:58:14;;;;;;;18.35;10.60;;;;;;;11.71;58.00;95734.81;4164069;28;20143;-61
2022/10/29 07:00:16;;;;;;;14.23;10.85;;;;;;;11.57;58.31;95722.94;4161456;28;20085;-57
2022/10/29 07:02:18;;;;;;;15.98;10.55;;;;;;;11.57;58.29;95722.94;4162506;28;20526;-59
2022/10/29 07:04:20;;;;;;;16.48;10.27;;;;;;;11.64;58.25;95731.94;4172978;28;20672;-61
2022/10/29 07:06:21;;;;;;;15.48;10.82;;;;;;;11.76;58.11;95730.78;4178246;28;20132;-59
2022/10/29 07:08:23;;;;;;;15.40;10.57;;;;;;;11.88;57.93;95734.94;4179057;28;20157;-60
2022/10/29 07:10:27;;;;;;;18.75;11.23;;;;;;;11.92;57.61;95734.69;4178783;28;20056;-61
2022/10/29 07:12:29;;;;;;;;;;;;;;;12.01;57.33;95734.63;4179261;28;20080;-58
2022/10/29 07:14:31;;;;;;;18.55;11.77;;;;;;;12.17;57.62;95741.91;4175620;28;20457;-59
2022/10/29 07:16:32;;;;;;;19.67;12.60;;;;;;;12.38;57.93;95746.13;4163461;28;20132;-61
2022/10/29 07:18:35;;;;;;;21.75;13.75;;;;;;;12.22;56.45;95741.50;4172508;28;20134;-61
2022/10/29 07:20:39;;;;;;;18.63;12.10;;;;;;;11.72;57.71;95739.91;4177933;28;20044;-59
2022/10/29 07:22:46;;;;;;;23.83;13.02;;;;;;;11.48;58.67;95743.78;4178497;28;20081;-58
2022/10/29 07:24:47;;;;;;;18.75;12.45;;;;;;;11.49;59.05;95747.28;4178748;28;20379;-60
2022/10/29 07:26:49;;;;;;;19.90;11.75;;;;;;;11.65;58.46;95744.91;4178683;28;20136;-59
2022/10/29 07:28:55;;;;;;;21.75;12.88;;;;;;;11.95;57.79;95744.88;4178393;28;20049;-58
2022/10/29 07:30:59;;;;;;;20.55;12.35;;;;;;;12.11;57.36;95750.38;4177615;28;20493;-61
2022/10/29 07:33:01;;;;;;;19.90;13.55;;;;;;;12.24;56.65;95739.56;4178823;28;20132;-57
2022/10/29 07:35:03;;;;;;;26.38;14.50;;;;;;;12.35;56.63;95741.19;4178525;28;20080;-61
2022/10/29 07:37:04;;;;;;;28.02;12.73;;;;;;;12.41;56.37;95744.06;4178036;28;20049;-60
2022/10/29 07:39:06;;;;;;;26.77;14.65;;;;;;;12.52;55.99;95742.19;4177184;28;20080;-60
2022/10/29 07:41:07;;;;;;;21.67;14.68;;;;;;;12.60;56.02;95742.31;4165586;28;20054;-62
2022/10/29 07:43:09;;;;;;;26.90;14.88;;;;;;;12.73;55.78;95741.97;4178653;28;20079;-60
2022/10/29 07:45:11;;;;;;;27.90;14.23;;;;;;;12.83;55.31;95732.22;4177775;28;20055;-59
2022/10/29 07:47:12;;;;;;;25.85;14.40;;;;;;;12.79;55.17;95731.69;4168561;28;20081;-57
2022/10/29 07:49:14;;;;;;;28.15;13.85;;;;;;;12.55;55.75;95728.78;4168817;28;20081;-61
2022/10/29 07:51:16;;;;;;;21.83;14.25;;;;;;;12.39;56.12;95727.59;4167437;28;20129;-59
2022/10/29 07:53:18;;;;;;;25.30;14.70;;;;;;;12.53;56.57;95734.16;4174143;28;20136;-60
2022/10/29 07:55:19;;;;;;;24.90;14.10;;;;;;;12.67;55.62;95741.59;4173567;28;20077;-64
2022/10/29 07:57:21;;;;;;;22.63;13.88;;;;;;;12.64;55.84;95739.22;4175472;28;20413;-63
2022/10/29 07:59:23;;;;;;;20.70;13.48;;;;;;;12.64;55.85;95733.97;4178673;28;20120;-63
2022/10/29 08:01:24;;;;;;;26.85;14.43;;;;;;;12.87;55.67;95736.22;4177298;28;20132;-63
2022/10/29 08:03:26;;;;;;;31.35;13.85;;;;;;;13.23;55.48;95731.81;4173667;28;20402;-65
2022/10/29 08:05:28;;;;;;;22.27;13.70;;;;;;;13.52;54.62;95731.59;4172313;28;20049;-65
2022/10/29 08:07:30;;;;;;;26.25;13.73;;;;;;;13.83;53.56;95731.19;4168734;28;20517;-64
2022/10/29 08:09:32;;;;;;;22.77;13.70;;;;;;;14.05;52.82;95716.69;4173634;28;20049;-63
2022/10/29 08:11:33;;;;;;;23.05;14.32;;;;;;;14.25;52.84;95719.09;4168622;28;20087;-65
2022/10/29 08:13:35;;;;;;;22.98;13.98;;;;;;;14.44;52.02;95718.03;4172846;28;20128;-65
2022/10/29 08:15:37;;;;;;;22.65;13.90;;;;;;;14.63;51.45;95719.66;4180367;28;20049;-66
2022/10/29 08:17:39;;;;;;;30.27;13.57;;;;;;;14.67;50.86;95715.69;4181097;28;20139;-65
2022/10/29 08:19:40;;;;;;;20.05;13.07;;;;;;;14.68;50.49;95712.06;4181834;28;20072;-66
2022/10/29 08:21:42;;;;;;;22.85;13.65;;;;;;;14.70;50.45;95710.09;4180560;28;20510;-65
2022/10/29 08:23:44;;;;;;;24.85;12.77;;;;;;;14.57;50.16;95707.09;4169671;28;20050;-65
2022/10/29 08:25:46;;;;;;;20.27;12.95;;;;;;;14.68;50.61;95712.06;4176812;28;20461;-66
2022/10/29 08:28:02;;;;;;;27.48;12.82;;;;;;;14.89;50.50;95709.81;4168474;28;20059;-67
2022/10/29 08:30:05;;;;;;;21.52;11.73;;;;;;;15.11;50.16;95707.56;4177156;28;20493;-64
2022/10/29 08:32:07;;;;;;;21.13;10.25;;;;;;;15.30;49.51;95706.44;4179691;28;20076;-64
2022/10/29 08:34:08;;;;;;;22.48;12.57;;;;;;;15.48;49.01;95712.38;4181169;28;20087;-66
2022/10/29 08:36:11;;;;;;;17.55;12.13;;;;;;;15.52;48.36;95707.59;4180826;28;20068;-64
2022/10/29 08:38:13;;;;;;;24.55;13.57;;;;;;;15.28;49.04;95706.59;4179724;28;20085;-66
2022/10/29 08:40:28;;;;;;;24.83;12.48;;;;;;;15.14;49.24;95709.88;4175395;28;20060;-64
2022/10/29 08:42:55;;;;;;;24.48;11.32;;;;;;;14.70;50.32;95707.47;4174705;28;20067;-66
2022/10/29 08:45:24;;;;;;;20.52;10.55;;;;;;;14.95;50.36;95697.81;4164708;28;20052;-67
2022/10/29 08:47:26;;;;;;;19.58;10.93;;;;;;;15.00;49.77;95698.16;4164531;28;20128;-69
2022/10/29 08:49:36;;;;;;;20.50;11.43;;;;;;;14.89;49.94;95694.00;4173367;28;20091;-66
2022/10/29 08:51:40;;;;;;;19.50;10.15;;;;;;;15.00;49.77;95689.41;4180355;28;20132;-65
2022/10/29 08:53:46;;;;;;;15.80;10.15;;;;;;;15.20;49.58;95689.94;4167053;28;20077;-67
2022/10/29 08:56:28;;;;;;;18.60;10.60;;;;;;;15.30;48.94;95685.31;4173768;28;20135;-57
2022/10/29 08:58:35;;;;;;;18.92;9.35;;;;;;;15.32;48.88;95678.06;4175944;28;20145;-58
2022/10/29 09:00:56;;;;;;;21.23;9.57;;;;;;;15.54;48.96;95685.31;4169978;28;20061;-61
2022/10/29 09:02:58;;;;;;;11.45;7.93;;;;;;;15.65;48.29;95689.44;4166804;28;20046;-61
2022/10/29 09:05:00;;;;;;;11.45;7.85;;;;;;;15.68;48.13;95683.84;4172717;28;20075;-59
2022/10/29 09:07:23;;;;;;;16.65;8.57;;;;;;;15.76;48.07;95683.84;4172462;28;20056;-61
2022/10/29 09:09:36;;;;;;;19.42;9.48;;;;;;;15.94;47.75;95688.94;4164458;28;20060;-58
2022/10/29 09:11:49;;;;;;;21.80;10.10;;;;;;;16.14;47.73;95683.28;4168898;28;20573;-60
2022/10/29 09:14:06;;;;;;;19.58;10.85;;;;;;;16.30;47.37;95683.22;4169557;28;20306;-59
2022/10/29 09:16:26;;;;;;;17.73;10.23;;;;;;;16.56;46.80;95679.50;4166289;28;20045;-60
2022/10/29 09:19:05;;;;;;;21.08;10.63;;;;;;;16.86;46.34;95671.78;4180530;28;20044;-59
2022/10/29 09:21:17;;;;;;;21.63;10.75;;;;;;;17.15;45.89;95677.22;4164166;28;20453;-58
2022/10/29 09:23:28;;;;;;;22.70;12.05;;;;;;;17.31;45.04;95670.16;4172652;28;20080;-59
2022/10/29 09:25:33;;;;;;;15.90;11.32;;;;;;;16.88;45.86;95675.06;4178714;28;20494;-60
2022/10/29 09:27:47;;;;;;;18.70;12.02;;;;;;;16.65;46.15;95662.63;4164796;28;20060;-60
2022/10/29 09:29:52;;;;;;;21.42;11.45;;;;;;;16.76;46.40;95666.69;4164802;28;20128;-58
2022/10/29 09:32:06;;;;;;;25.15;11.65;;;;;;;17.06;46.17;95662.41;4166137;28;20132;-66
2022/10/29 09:34:12;;;;;;;20.70;12.32;;;;;;;17.16;45.32;95662.16;4179060;28;20077;-67
2022/10/29 09:36:16;;;;;;;24.17;13.45;;;;;;;17.01;45.40;95662.09;4178277;28;20528;-67
2022/10/29 09:38:23;;;;;;;21.80;11.82;;;;;;;17.02;45.39;95662.94;4166179;28;20081;-65
2022/10/29 09:40:27;;;;;;;17.33;10.82;;;;;;;16.98;45.52;95654.50;4195239;28;20048;-64